Terminal Aerodrome Forecast
Issued by NWS

Current Version | Previous Version | Graphics & Text | Print | Product List | Glossary On
Versions: 1 2 3 4 5 6 7 8 9 10 11 12 13 14 15 16 17 18 19
000
FTUS41 KILN 241700
TAFLCK
TAF
KLCK 241720Z 2418/2518 17010KT P6SM BKN020
     FM242100 22013KT 3SM -SHRA VCTS OVC012CB
     FM242200 26025G40KT P6SM -RA OVC009
     FM250400 24020G30KT P6SM VCSH OVC015
     FM250800 24013G24KT P6SM VCSH OVC020
     FM251300 24012KT P6SM OVC020=

USA.gov is the U.S. government's official web portal to all federal, state and local government web resources and services.